createdAt,value
2018-08-13T00:00:12.266Z,1004.85
2018-08-13T00:01:12.234Z,1004.94
2018-08-13T00:02:12.226Z,1004.89
2018-08-13T00:03:12.213Z,1004.85
2018-08-13T00:04:12.202Z,1004.89
2018-08-13T00:05:12.205Z,1004.90
2018-08-13T00:06:12.188Z,1004.87
2018-08-13T00:07:12.162Z,1004.88
2018-08-13T00:08:12.153Z,1004.87
2018-08-13T00:09:12.142Z,1004.83
2018-08-13T00:10:12.132Z,1004.82
2018-08-13T00:11:12.127Z,1004.86
2018-08-13T00:12:12.101Z,1004.85
2018-08-13T00:13:12.095Z,1004.84
2018-08-13T00:14:12.077Z,1004.81
2018-08-13T00:15:12.067Z,1004.77
2018-08-13T00:16:12.074Z,1004.74
2018-08-13T00:17:12.061Z,1004.72
2018-08-13T00:18:12.046Z,1004.71
2018-08-13T00:19:12.026Z,1004.70
2018-08-13T00:20:12.010Z,1004.63
2018-08-13T00:21:12.001Z,1004.62
2018-08-13T00:22:12.006Z,1004.55
2018-08-13T00:23:11.978Z,1004.57
2018-08-13T00:24:11.974Z,1004.54
2018-08-13T00:25:11.953Z,1004.55
2018-08-13T00:26:11.939Z,1004.54
2018-08-13T00:27:11.945Z,1004.55
2018-08-13T00:28:11.914Z,1004.53
2018-08-13T00:29:11.911Z,1004.55
2018-08-13T00:30:11.894Z,1004.52
2018-08-13T00:31:11.876Z,1004.53
2018-08-13T00:32:12.161Z,1004.49
2018-08-13T00:33:11.995Z,1004.51
2018-08-13T00:34:11.841Z,1004.49
2018-08-13T00:35:11.837Z,1004.48
2018-08-13T00:36:11.820Z,1004.47
2018-08-13T00:37:11.826Z,1004.49
2018-08-13T00:38:11.811Z,1004.44
2018-08-13T00:39:11.786Z,1004.42
2018-08-13T00:40:12.439Z,1004.42
2018-08-13T00:41:11.856Z,1004.42
2018-08-13T00:42:11.847Z,1004.42
2018-08-13T00:43:11.802Z,1004.39
2018-08-13T00:44:11.736Z,1004.42
2018-08-13T00:45:11.719Z,1004.43
2018-08-13T00:46:11.701Z,1004.39
2018-08-13T00:47:32.711Z,1004.42
2018-08-13T00:48:11.683Z,1004.40
2018-08-13T00:49:11.677Z,1004.42
2018-08-13T00:50:11.658Z,1004.40
2018-08-13T00:51:11.676Z,1004.39
2018-08-13T00:52:11.630Z,1004.40
2018-08-13T00:53:11.617Z,1004.41
2018-08-13T00:54:11.627Z,1004.41
2018-08-13T00:55:11.590Z,1004.43
2018-08-13T00:56:11.582Z,1004.43
2018-08-13T00:57:11.572Z,1004.44
2018-08-13T00:58:11.564Z,1004.46
2018-08-13T00:59:11.543Z,1004.39
2018-08-13T01:00:11.554Z,1004.39
2018-08-13T01:01:11.524Z,1004.36
2018-08-13T01:02:11.517Z,1004.30
2018-08-13T01:03:11.514Z,1004.31
2018-08-13T01:04:11.483Z,1004.29
2018-08-13T01:05:11.473Z,1004.28
2018-08-13T01:06:11.474Z,1004.30
2018-08-13T01:07:11.457Z,1004.29
2018-08-13T01:08:11.464Z,1004.30
2018-08-13T01:09:11.424Z,1004.27
2018-08-13T01:10:11.408Z,1004.27
2018-08-13T01:11:11.402Z,1004.26
2018-08-13T01:12:11.388Z,1004.28
2018-08-13T01:13:11.398Z,1004.26
2018-08-13T01:14:11.362Z,1004.22
2018-08-13T01:15:11.350Z,1004.20
2018-08-13T01:16:11.356Z,1004.23
2018-08-13T01:17:11.347Z,1004.20
2018-08-13T01:18:11.335Z,1004.16
2018-08-13T01:19:11.301Z,1004.11
2018-08-13T01:20:11.295Z,1004.12
2018-08-13T01:21:11.280Z,1004.14
2018-08-13T01:22:11.286Z,1004.12
2018-08-13T01:23:11.265Z,1004.09
2018-08-13T01:24:11.261Z,1004.05
2018-08-13T01:25:11.237Z,1004.03
2018-08-13T01:26:11.221Z,1004.00
2018-08-13T01:27:11.221Z,1004.03
2018-08-13T01:28:11.211Z,1003.99
2018-08-13T01:29:11.182Z,1003.96
2018-08-13T01:30:11.175Z,1003.91
2018-08-13T01:31:11.158Z,1003.97
2018-08-13T01:32:11.161Z,1003.93
2018-08-13T01:33:11.137Z,1003.95
2018-08-13T01:34:11.127Z,1003.98
2018-08-13T01:35:11.110Z,1003.91
2018-08-13T01:36:11.097Z,1003.96
2018-08-13T01:37:11.106Z,1003.95
2018-08-13T01:38:11.086Z,1003.94
2018-08-13T01:39:11.064Z,1003.87
2018-08-13T01:40:11.064Z,1003.88
2018-08-13T01:41:11.042Z,1003.85
2018-08-13T01:42:11.041Z,1003.89
2018-08-13T01:43:11.018Z,1003.88
2018-08-13T01:44:11.000Z,1003.88
2018-08-13T01:45:10.989Z,1003.84
2018-08-13T01:46:10.995Z,1003.81
2018-08-13T01:47:10.968Z,1003.77
2018-08-13T01:48:10.958Z,1003.77
2018-08-13T01:49:10.945Z,1003.78
2018-08-13T01:50:10.927Z,1003.76
2018-08-13T01:51:10.940Z,1003.71
2018-08-13T01:52:10.908Z,1003.73
2018-08-13T01:53:10.896Z,1003.71
2018-08-13T01:54:10.905Z,1003.72
2018-08-13T01:55:10.864Z,1003.71
2018-08-13T01:56:10.857Z,1003.73
2018-08-13T01:57:10.860Z,1003.73
2018-08-13T01:58:10.829Z,1003.72
2018-08-13T01:59:10.842Z,1003.74
2018-08-13T02:00:10.804Z,1003.76
2018-08-13T02:01:10.804Z,1003.81
2018-08-13T02:02:10.779Z,1003.78
2018-08-13T02:03:10.773Z,1003.79
2018-08-13T02:04:10.763Z,1003.72
2018-08-13T02:05:10.767Z,1003.72
2018-08-13T02:06:10.739Z,1003.70
2018-08-13T02:07:10.729Z,1003.69
2018-08-13T02:08:10.712Z,1003.74
2018-08-13T02:09:10.699Z,1003.72
2018-08-13T02:10:10.688Z,1003.69
2018-08-13T02:11:10.704Z,1003.67
2018-08-13T02:12:10.659Z,1003.68
2018-08-13T02:13:10.654Z,1003.69
2018-08-13T02:14:10.635Z,1003.64
2018-08-13T02:15:10.627Z,1003.67
2018-08-13T02:16:10.618Z,1003.66
2018-08-13T02:17:10.637Z,1003.68
2018-08-13T02:18:10.589Z,1003.72
2018-08-13T02:19:10.571Z,1003.67
2018-08-13T02:20:10.559Z,1003.66
2018-08-13T02:21:10.551Z,1003.62
2018-08-13T02:22:10.538Z,1003.63
2018-08-13T02:23:10.544Z,1003.51
2018-08-13T02:24:10.521Z,1003.48
2018-08-13T02:25:10.503Z,1003.47
2018-08-13T02:26:10.492Z,1003.46
2018-08-13T02:27:10.487Z,1003.43
2018-08-13T02:28:10.467Z,1003.45
2018-08-13T02:29:10.483Z,1003.43
2018-08-13T02:30:10.450Z,1003.38
2018-08-13T02:31:10.425Z,1003.42
2018-08-13T02:32:31.429Z,1003.36
2018-08-13T02:33:10.409Z,1003.31
2018-08-13T02:34:10.419Z,1003.30
2018-08-13T02:35:10.386Z,1003.23
2018-08-13T02:36:10.365Z,1003.23
2018-08-13T02:37:10.356Z,1003.22
2018-08-13T02:38:10.367Z,1003.15
2018-08-13T02:39:10.391Z,1003.17
2018-08-13T02:40:10.330Z,1003.12
2018-08-13T02:41:10.304Z,1003.07
2018-08-13T02:42:10.300Z,1003.07
2018-08-13T02:43:10.281Z,1003.05
2018-08-13T02:44:10.303Z,1003.00
2018-08-13T02:45:10.257Z,1003.00
2018-08-13T02:46:10.248Z,1002.99
2018-08-13T02:47:10.231Z,1002.97
2018-08-13T02:48:10.222Z,1003.03
2018-08-13T02:49:10.225Z,1002.99
2018-08-13T02:50:10.201Z,1002.99
2018-08-13T02:51:10.188Z,1003.01
2018-08-13T02:52:10.181Z,1003.01
2018-08-13T02:53:10.180Z,1003.03
2018-08-13T02:54:10.153Z,1003.02
2018-08-13T02:55:10.167Z,1003.02
2018-08-13T02:56:10.132Z,1003.05
2018-08-13T02:57:10.118Z,1003.05
2018-08-13T02:58:10.194Z,1003.05
2018-08-13T02:59:10.100Z,1003.08
2018-08-13T03:00:10.100Z,1003.08
2018-08-13T03:01:10.064Z,1003.09
2018-08-13T03:02:10.048Z,1003.11
2018-08-13T03:03:10.050Z,1003.16
2018-08-13T03:04:10.026Z,1003.26
2018-08-13T03:05:10.035Z,1003.28
2018-08-13T03:06:10.029Z,1003.32
2018-08-13T03:07:10.018Z,1003.42
2018-08-13T03:08:09.983Z,1003.46
2018-08-13T03:09:10.004Z,1003.44
2018-08-13T03:10:09.957Z,1003.42
2018-08-13T03:11:09.946Z,1003.41
2018-08-13T03:12:09.975Z,1003.67
2018-08-13T03:13:09.932Z,1003.75
2018-08-13T03:14:09.920Z,1003.71
2018-08-13T03:15:09.896Z,1003.56
2018-08-13T03:16:09.890Z,1003.69
2018-08-13T03:17:09.923Z,1003.70
2018-08-13T03:18:09.882Z,1003.67
2018-08-13T03:19:09.842Z,1003.83
2018-08-13T03:20:09.832Z,1003.97
2018-08-13T03:21:09.822Z,1003.98
2018-08-13T03:22:09.808Z,1003.92
2018-08-13T03:23:09.808Z,1003.86
2018-08-13T03:24:09.791Z,1003.82
2018-08-13T03:25:09.767Z,1003.84
2018-08-13T03:26:09.759Z,1003.82
2018-08-13T03:27:09.753Z,1003.92
2018-08-13T03:28:09.741Z,1003.90
2018-08-13T03:29:09.719Z,1003.86
2018-08-13T03:30:09.703Z,1003.76
2018-08-13T03:31:09.690Z,1003.73
2018-08-13T03:32:09.676Z,1003.65
2018-08-13T03:33:09.686Z,1003.67
2018-08-13T03:34:09.683Z,1003.66
2018-08-13T03:35:09.644Z,1003.66
2018-08-13T03:36:09.629Z,1003.64
2018-08-13T03:37:09.614Z,1003.59
2018-08-13T03:38:09.622Z,1003.64
2018-08-13T03:39:09.588Z,1003.64
2018-08-13T03:40:09.594Z,1003.61
2018-08-13T03:41:09.568Z,1003.58
2018-08-13T03:42:09.550Z,1003.55
2018-08-13T03:43:09.554Z,1003.56
2018-08-13T03:44:09.523Z,1003.54
2018-08-13T03:45:09.516Z,1003.56
2018-08-13T03:46:09.523Z,1003.63
2018-08-13T03:47:09.491Z,1003.68
2018-08-13T03:48:09.477Z,1003.70
2018-08-13T03:49:09.476Z,1003.69
2018-08-13T03:50:09.450Z,1003.73
2018-08-13T03:51:09.461Z,1003.74
2018-08-13T03:52:09.423Z,1003.71
2018-08-13T03:53:09.407Z,1003.72
2018-08-13T03:54:09.400Z,1003.81
2018-08-13T03:55:09.394Z,1003.81
2018-08-13T03:56:09.375Z,1003.83
2018-08-13T03:57:09.380Z,1003.86
2018-08-13T03:58:09.341Z,1003.86
2018-08-13T03:59:09.333Z,1003.92
2018-08-13T04:00:10.201Z,1003.92
2018-08-13T04:01:09.343Z,1003.87
2018-08-13T04:02:09.319Z,1003.92
2018-08-13T04:03:09.297Z,1003.95
2018-08-13T04:04:09.271Z,1003.98
2018-08-13T04:05:09.270Z,1004.07
2018-08-13T04:06:09.251Z,1004.15
2018-08-13T04:07:09.242Z,1004.19
2018-08-13T04:08:09.223Z,1004.17
2018-08-13T04:09:09.206Z,1004.11
2018-08-13T04:10:09.196Z,1004.10
2018-08-13T04:11:09.182Z,1004.08
2018-08-13T04:12:09.194Z,1004.07
2018-08-13T04:13:09.168Z,1004.11
2018-08-13T04:14:09.146Z,1004.09
2018-08-13T04:15:09.129Z,1004.08
2018-08-13T04:16:09.111Z,1004.11
2018-08-13T04:17:09.102Z,1004.16
2018-08-13T04:18:09.108Z,1004.20
2018-08-13T04:19:09.075Z,1004.20
2018-08-13T04:20:09.065Z,1004.27
2018-08-13T04:21:09.054Z,1004.29
2018-08-13T04:22:09.034Z,1004.32
2018-08-13T04:23:09.019Z,1004.29
2018-08-13T04:24:09.025Z,1004.37
2018-08-13T04:25:08.991Z,1004.40
2018-08-13T04:26:08.977Z,1004.43
2018-08-13T04:27:08.969Z,1004.44
2018-08-13T04:28:08.957Z,1004.40
2018-08-13T04:29:08.954Z,1004.37
2018-08-13T04:30:08.937Z,1004.36
2018-08-13T04:31:08.908Z,1004.29
2018-08-13T04:32:08.906Z,1004.33
2018-08-13T04:33:08.890Z,1004.32
2018-08-13T04:34:08.889Z,1004.33
2018-08-13T04:35:08.868Z,1004.35
2018-08-13T04:36:08.846Z,1004.34
2018-08-13T04:37:08.844Z,1004.39
2018-08-13T04:38:08.821Z,1004.48
2018-08-13T04:39:08.821Z,1004.40
2018-08-13T04:40:08.790Z,1004.49
2018-08-13T04:41:08.784Z,1004.43
2018-08-13T04:42:08.763Z,1004.41
2018-08-13T04:43:08.747Z,1004.38
2018-08-13T04:44:08.735Z,1004.40
2018-08-13T04:45:08.744Z,1004.37
2018-08-13T04:46:08.715Z,1004.33
2018-08-13T04:47:08.705Z,1004.31
2018-08-13T04:48:08.680Z,1004.29
2018-08-13T04:49:08.665Z,1004.24
2018-08-13T04:50:08.654Z,1004.24
2018-08-13T04:51:08.638Z,1004.26
2018-08-13T04:52:08.659Z,1004.26
2018-08-13T04:53:08.617Z,1004.26
2018-08-13T04:54:08.604Z,1004.24
2018-08-13T04:55:08.581Z,1004.18
2018-08-13T04:56:08.640Z,1004.16
2018-08-13T04:57:08.586Z,1004.14
2018-08-13T04:58:08.541Z,1004.05
2018-08-13T04:59:08.536Z,1004.10
2018-08-13T05:00:08.515Z,1004.16
2018-08-13T05:01:08.502Z,1004.17
2018-08-13T05:02:08.484Z,1004.13
2018-08-13T05:03:08.495Z,1004.15
2018-08-13T05:04:08.462Z,1004.12
2018-08-13T05:05:08.448Z,1004.10
2018-08-13T05:06:08.434Z,1004.05
2018-08-13T05:07:08.437Z,1004.02
2018-08-13T05:08:08.419Z,1003.97
2018-08-13T05:09:08.396Z,1003.96
2018-08-13T05:10:08.377Z,1003.90
2018-08-13T05:11:08.365Z,1003.86
2018-08-13T05:12:08.366Z,1003.88
2018-08-13T05:13:08.356Z,1003.88
2018-08-13T05:14:08.321Z,1003.89
2018-08-13T05:15:08.310Z,1003.89
2018-08-13T05:16:08.296Z,1003.95
2018-08-13T05:17:08.284Z,1003.91
2018-08-13T05:18:08.269Z,1003.97
2018-08-13T05:19:08.269Z,1003.97
2018-08-13T05:20:08.240Z,1004.00
2018-08-13T05:21:08.232Z,1004.04
2018-08-13T05:22:08.212Z,1004.12
2018-08-13T05:23:08.198Z,1004.08
2018-08-13T05:24:08.204Z,1004.07
2018-08-13T05:25:08.174Z,1004.03
2018-08-13T05:26:08.158Z,1004.03
2018-08-13T05:27:08.147Z,1003.97
2018-08-13T05:28:08.147Z,1003.96
2018-08-13T05:29:08.127Z,1003.96
2018-08-13T05:30:08.171Z,1003.97
2018-08-13T05:31:08.084Z,1004.02
2018-08-13T05:32:08.078Z,1004.09
2018-08-13T05:33:08.058Z,1004.10
2018-08-13T05:34:08.062Z,1004.12
2018-08-13T05:35:08.033Z,1004.08
2018-08-13T05:36:08.020Z,1004.08
2018-08-13T05:37:08.003Z,1004.04
2018-08-13T05:38:08.002Z,1004.05
2018-08-13T05:39:07.979Z,1004.03
2018-08-13T05:40:07.985Z,1003.88
2018-08-13T05:41:07.953Z,1003.82
2018-08-13T05:42:07.937Z,1003.76
2018-08-13T05:43:07.924Z,1003.64
2018-08-13T05:44:07.908Z,1003.63
2018-08-13T05:45:07.895Z,1003.86
2018-08-13T05:46:07.894Z,1003.96
2018-08-13T05:47:07.865Z,1003.87
2018-08-13T05:48:07.857Z,1003.82
2018-08-13T05:49:07.841Z,1003.90
2018-08-13T05:50:07.849Z,1003.92
2018-08-13T05:51:07.812Z,1003.82
2018-08-13T05:52:07.800Z,1003.72
2018-08-13T05:53:07.787Z,1003.75
2018-08-13T05:54:07.772Z,1003.79
2018-08-13T05:55:07.772Z,1003.76
2018-08-13T05:56:07.756Z,1003.75
2018-08-13T05:57:07.729Z,1003.77
2018-08-13T05:58:07.717Z,1003.74
2018-08-13T05:59:07.704Z,1003.64
2018-08-13T06:00:07.689Z,1003.67
2018-08-13T06:01:07.691Z,1003.59
2018-08-13T06:02:07.658Z,1003.44
2018-08-13T06:03:07.706Z,1003.31
2018-08-13T06:04:07.636Z,1003.26
2018-08-13T06:05:07.621Z,1003.12
2018-08-13T06:06:07.605Z,1003.05
2018-08-13T06:07:07.592Z,1002.94
2018-08-13T06:08:07.594Z,1002.87
2018-08-13T06:09:07.565Z,1002.86
2018-08-13T06:10:07.553Z,1002.89
2018-08-13T06:11:07.584Z,1002.95
2018-08-13T06:12:07.520Z,1002.98
2018-08-13T06:13:07.513Z,1003.12
2018-08-13T06:14:07.513Z,1003.23
2018-08-13T06:15:07.480Z,1003.16
2018-08-13T06:16:07.471Z,1003.01
2018-08-13T06:17:07.453Z,1002.99
2018-08-13T06:18:07.495Z,1003.12
2018-08-13T06:19:07.439Z,1003.12
2018-08-13T06:20:07.410Z,1003.13
2018-08-13T06:21:07.408Z,1003.11
2018-08-13T06:22:07.382Z,1003.09
2018-08-13T06:23:07.371Z,1003.09
2018-08-13T06:24:07.373Z,1003.15
2018-08-13T06:25:07.339Z,1003.19
2018-08-13T06:26:07.342Z,1003.24
2018-08-13T06:27:07.319Z,1003.20
2018-08-13T06:28:07.333Z,1003.19
2018-08-13T06:29:07.284Z,1003.14
2018-08-13T06:30:07.308Z,1003.12
2018-08-13T06:31:07.257Z,1003.18
2018-08-13T06:32:07.246Z,1003.20
2018-08-13T06:33:07.315Z,1003.27
2018-08-13T06:34:07.219Z,1003.33
2018-08-13T06:35:07.207Z,1003.41
2018-08-13T06:36:07.188Z,1003.43
2018-08-13T06:37:07.225Z,1003.43
2018-08-13T06:38:07.164Z,1003.45
2018-08-13T06:39:07.164Z,1003.47
2018-08-13T06:40:07.137Z,1003.42
2018-08-13T06:41:07.142Z,1003.47
2018-08-13T06:42:07.108Z,1003.43
2018-08-13T06:43:07.097Z,1003.46
2018-08-13T06:44:07.082Z,1003.46
2018-08-13T06:45:07.070Z,1003.44
2018-08-13T06:46:07.056Z,1003.47
2018-08-13T06:47:07.066Z,1003.48
2018-08-13T06:48:07.033Z,1003.48
2018-08-13T06:49:07.015Z,1003.51
2018-08-13T06:50:07.007Z,1003.54
2018-08-13T06:51:06.991Z,1003.53
2018-08-13T06:52:06.980Z,1003.49
2018-08-13T06:53:06.981Z,1003.52
2018-08-13T06:54:06.952Z,1003.50
2018-08-13T06:55:06.938Z,1003.54
2018-08-13T06:56:06.939Z,1003.51
2018-08-13T06:57:06.914Z,1003.59
2018-08-13T06:58:06.900Z,1003.57
2018-08-13T06:59:06.883Z,1003.61
2018-08-13T07:00:06.875Z,1003.59
2018-08-13T07:01:06.880Z,1003.58
2018-08-13T07:02:06.846Z,1003.64
2018-08-13T07:03:06.830Z,1003.69
2018-08-13T07:04:06.838Z,1003.66
2018-08-13T07:05:06.804Z,1003.66
2018-08-13T07:06:06.807Z,1003.65
2018-08-13T07:07:06.787Z,1003.63
2018-08-13T07:08:06.773Z,1003.65
2018-08-13T07:09:06.773Z,1003.66
2018-08-13T07:10:06.745Z,1003.68
2018-08-13T07:11:06.729Z,1003.70
2018-08-13T07:12:06.717Z,1003.73
2018-08-13T07:13:06.704Z,1003.73
2018-08-13T07:14:06.704Z,1003.78
2018-08-13T07:15:06.681Z,1003.78
2018-08-13T07:16:06.663Z,1003.80
2018-08-13T07:17:06.651Z,1003.80
2018-08-13T07:18:06.638Z,1003.83
2018-08-13T07:19:06.637Z,1003.85
2018-08-13T07:20:06.611Z,1003.87
2018-08-13T07:21:06.602Z,1003.99
2018-08-13T07:22:06.598Z,1003.95
2018-08-13T07:23:06.568Z,1003.95
2018-08-13T07:24:06.574Z,1003.99
2018-08-13T07:25:06.546Z,1004.02
2018-08-13T07:26:06.537Z,1004.01
2018-08-13T07:27:06.516Z,1004.05
2018-08-13T07:28:06.558Z,1004.04
2018-08-13T07:29:06.500Z,1004.06
2018-08-13T07:30:06.496Z,1004.07
2018-08-13T07:31:06.462Z,1004.14
2018-08-13T07:32:06.456Z,1004.12
2018-08-13T07:33:06.462Z,1004.14
2018-08-13T07:34:06.431Z,1004.12
2018-08-13T07:35:06.431Z,1004.14
2018-08-13T07:36:06.415Z,1004.12
2018-08-13T07:37:06.388Z,1004.15
2018-08-13T07:38:06.395Z,1004.17
2018-08-13T07:39:06.415Z,1004.22
2018-08-13T07:40:06.349Z,1004.22
2018-08-13T07:41:06.336Z,1004.26
2018-08-13T07:42:06.319Z,1004.22
2018-08-13T07:43:06.308Z,1004.21
2018-08-13T07:44:06.315Z,1004.19
2018-08-13T07:45:06.278Z,1004.19
2018-08-13T07:46:06.274Z,1004.16
2018-08-13T07:47:06.256Z,1004.22
2018-08-13T07:48:06.243Z,1004.21
2018-08-13T07:49:06.243Z,1004.25
2018-08-13T07:50:06.215Z,1004.26
2018-08-13T07:51:06.206Z,1004.26
2018-08-13T07:52:06.192Z,1004.26
2018-08-13T07:53:06.178Z,1004.25
2018-08-13T07:54:06.181Z,1004.20
2018-08-13T07:55:06.149Z,1004.24
2018-08-13T07:56:06.138Z,1004.21
2018-08-13T07:57:06.123Z,1004.19
2018-08-13T07:58:06.111Z,1004.21
2018-08-13T07:59:06.111Z,1004.21
2018-08-13T08:00:06.167Z,1004.25
2018-08-13T08:01:06.069Z,1004.23
2018-08-13T08:02:06.058Z,1004.25
2018-08-13T08:03:06.059Z,1004.28
2018-08-13T08:04:06.035Z,1004.23
2018-08-13T08:05:06.019Z,1004.26
2018-08-13T08:06:06.008Z,1004.25
2018-08-13T08:07:05.993Z,1004.20
2018-08-13T08:08:05.997Z,1004.23
2018-08-13T08:09:05.992Z,1004.21
2018-08-13T08:10:05.950Z,1004.21
2018-08-13T08:11:05.939Z,1004.25
2018-08-13T08:12:05.923Z,1004.26
2018-08-13T08:13:05.916Z,1004.22
2018-08-13T08:14:05.918Z,1004.18
2018-08-13T08:15:05.892Z,1004.20
2018-08-13T08:16:05.897Z,1004.23
2018-08-13T08:17:05.864Z,1004.27
2018-08-13T08:18:05.843Z,1004.29
2018-08-13T08:19:05.833Z,1004.33
2018-08-13T08:20:05.823Z,1004.39
2018-08-13T08:21:05.808Z,1004.30
2018-08-13T08:22:05.817Z,1004.34
2018-08-13T08:23:05.798Z,1004.35
2018-08-13T08:24:05.767Z,1004.39
2018-08-13T08:25:05.751Z,1004.44
2018-08-13T08:26:05.769Z,1004.32
2018-08-13T08:27:05.729Z,1004.38
2018-08-13T08:28:05.732Z,1004.33
2018-08-13T08:29:05.768Z,1004.32
2018-08-13T08:30:05.685Z,1004.29
2018-08-13T08:31:05.677Z,1004.32
2018-08-13T08:32:05.675Z,1004.35
2018-08-13T08:33:05.649Z,1004.29
2018-08-13T08:34:05.635Z,1004.34
2018-08-13T08:35:05.622Z,1004.31
2018-08-13T08:36:05.608Z,1004.34
2018-08-13T08:37:05.616Z,1004.29
2018-08-13T08:38:05.582Z,1004.31
2018-08-13T08:39:05.571Z,1004.31
2018-08-13T08:40:05.554Z,1004.31
2018-08-13T08:41:05.543Z,1004.30
2018-08-13T08:42:05.527Z,1004.35
2018-08-13T08:43:26.526Z,1004.36
2018-08-13T08:44:05.498Z,1004.31
2018-08-13T08:45:05.495Z,1004.34
2018-08-13T08:46:05.555Z,1004.29
2018-08-13T08:47:05.459Z,1004.25
2018-08-13T08:48:05.460Z,1004.26
2018-08-13T08:49:05.435Z,1004.28
2018-08-13T08:50:05.422Z,1004.26
2018-08-13T08:51:05.420Z,1004.25
2018-08-13T08:52:05.396Z,1004.33
2018-08-13T08:53:05.418Z,1004.31
2018-08-13T08:54:05.399Z,1004.33
2018-08-13T08:55:05.356Z,1004.31
2018-08-13T08:56:05.339Z,1004.35
2018-08-13T08:57:05.328Z,1004.38
2018-08-13T08:58:05.317Z,1004.38
2018-08-13T08:59:05.307Z,1004.42
2018-08-13T09:00:05.305Z,1004.39
2018-08-13T09:01:05.281Z,1004.35
2018-08-13T09:02:05.262Z,1004.37
2018-08-13T09:03:05.254Z,1004.39
2018-08-13T09:04:05.240Z,1004.41
2018-08-13T09:05:05.243Z,1004.40
2018-08-13T09:06:05.232Z,1004.39
2018-08-13T09:07:05.202Z,1004.36
2018-08-13T09:08:05.210Z,1004.36
2018-08-13T09:09:05.176Z,1004.38
2018-08-13T09:10:05.163Z,1004.37
2018-08-13T09:11:05.173Z,1004.41
2018-08-13T09:12:05.141Z,1004.38
2018-08-13T09:13:05.124Z,1004.44
2018-08-13T09:14:05.123Z,1004.41
2018-08-13T09:15:05.100Z,1004.43
2018-08-13T09:16:05.104Z,1004.37
2018-08-13T09:17:05.077Z,1004.40
2018-08-13T09:18:05.064Z,1004.37
2018-08-13T09:19:05.057Z,1004.38
2018-08-13T09:20:05.057Z,1004.36
2018-08-13T09:21:05.025Z,1004.36
2018-08-13T09:22:05.012Z,1004.34
2018-08-13T09:23:04.998Z,1004.30
2018-08-13T09:24:04.991Z,1004.32
2018-08-13T09:25:05.002Z,1004.36
2018-08-13T09:26:04.961Z,1004.32
2018-08-13T09:27:04.949Z,1004.33
2018-08-13T09:28:04.938Z,1004.31
2018-08-13T09:29:04.926Z,1004.38
2018-08-13T09:30:04.914Z,1004.34
2018-08-13T09:31:04.915Z,1004.35
2018-08-13T09:32:04.887Z,1004.35
2018-08-13T09:33:04.877Z,1004.36
2018-08-13T09:34:04.863Z,1004.29
2018-08-13T09:35:04.851Z,1004.33
2018-08-13T09:36:04.860Z,1004.30
2018-08-13T09:37:04.831Z,1004.26
2018-08-13T09:38:04.815Z,1004.27
2018-08-13T09:39:04.804Z,1004.27
2018-08-13T09:40:04.793Z,1004.26
2018-08-13T09:41:04.781Z,1004.28
2018-08-13T09:42:04.784Z,1004.27
2018-08-13T09:43:04.759Z,1004.29
2018-08-13T09:44:04.749Z,1004.34
2018-08-13T09:45:04.732Z,1004.32
2018-08-13T09:46:04.720Z,1004.30
2018-08-13T09:47:04.727Z,1004.31
2018-08-13T09:48:04.750Z,1004.29
2018-08-13T09:49:04.687Z,1004.36
2018-08-13T09:50:04.674Z,1004.30
2018-08-13T09:51:04.658Z,1004.29
2018-08-13T09:52:04.647Z,1004.27
2018-08-13T09:53:04.654Z,1004.25
2018-08-13T09:54:04.626Z,1004.26
2018-08-13T09:55:04.615Z,1004.20
2018-08-13T09:56:04.604Z,1004.23
2018-08-13T09:57:04.592Z,1004.34
2018-08-13T09:58:04.594Z,1004.37
2018-08-13T09:59:04.574Z,1004.31
2018-08-13T10:00:04.563Z,1004.29
2018-08-13T10:01:04.552Z,1004.24
2018-08-13T10:02:04.540Z,1004.17
2018-08-13T10:03:04.547Z,1004.28
2018-08-13T10:04:04.519Z,1004.19
2018-08-13T10:05:04.510Z,1004.14
2018-08-13T10:06:04.504Z,1004.17
2018-08-13T10:07:04.489Z,1004.17
2018-08-13T10:08:04.494Z,1004.14
2018-08-13T10:09:04.489Z,1004.21
2018-08-13T10:10:04.461Z,1004.27
2018-08-13T10:11:04.452Z,1004.24
2018-08-13T10:12:04.445Z,1004.34
2018-08-13T10:13:04.435Z,1004.13
2018-08-13T10:14:04.422Z,1004.27
2018-08-13T10:15:04.432Z,1004.17
2018-08-13T10:16:04.412Z,1004.38
2018-08-13T10:17:04.403Z,1004.32
2018-08-13T10:18:04.391Z,1004.15
2018-08-13T10:19:04.380Z,1004.22
2018-08-13T10:20:04.388Z,1004.16
2018-08-13T10:21:04.367Z,1004.16
2018-08-13T10:22:04.358Z,1004.06
2018-08-13T10:23:04.352Z,1004.14
2018-08-13T10:24:04.352Z,1004.21
2018-08-13T10:25:04.349Z,1004.12
2018-08-13T10:26:04.327Z,1004.08
2018-08-13T10:27:04.324Z,1004.07
2018-08-13T10:28:04.315Z,1004.07
2018-08-13T10:29:04.310Z,1004.23
2018-08-13T10:30:04.314Z,1004.10
2018-08-13T10:31:04.294Z,1004.20
2018-08-13T10:32:04.290Z,1003.96
2018-08-13T10:33:04.295Z,1003.98
2018-08-13T10:34:04.271Z,1003.91
2018-08-13T10:35:04.267Z,1003.91
2018-08-13T10:36:04.259Z,1003.91
2018-08-13T10:37:04.248Z,1003.87
2018-08-13T10:38:04.260Z,1003.86
2018-08-13T10:39:04.238Z,1003.76
2018-08-13T10:40:04.230Z,1003.80
2018-08-13T10:41:04.221Z,1003.79
2018-08-13T10:42:04.219Z,1003.78
2018-08-13T10:43:04.205Z,1003.80
2018-08-13T10:44:04.216Z,1003.75
2018-08-13T10:45:04.192Z,1003.77
2018-08-13T10:46:04.195Z,1003.67
2018-08-13T10:47:04.173Z,1003.69
2018-08-13T10:48:04.162Z,1003.72
2018-08-13T10:49:04.155Z,1003.73
2018-08-13T10:50:04.143Z,1003.72
2018-08-13T10:51:04.153Z,1003.75
2018-08-13T10:52:04.128Z,1003.70
2018-08-13T10:53:04.120Z,1003.72
2018-08-13T10:54:04.109Z,1003.67
2018-08-13T10:55:04.113Z,1003.68
2018-08-13T10:56:04.114Z,1003.64
2018-08-13T10:57:04.086Z,1003.66
2018-08-13T10:58:04.072Z,1003.61
2018-08-13T10:59:04.063Z,1003.57
2018-08-13T11:00:04.053Z,1003.58
2018-08-13T11:01:04.122Z,1003.60
2018-08-13T11:02:04.035Z,1003.58
2018-08-13T11:03:04.018Z,1003.60
2018-08-13T11:04:04.014Z,1003.59
2018-08-13T11:05:04.002Z,1003.57
2018-08-13T11:06:03.992Z,1003.53
2018-08-13T11:07:04.005Z,1003.52
2018-08-13T11:08:03.991Z,1003.55
2018-08-13T11:09:03.963Z,1003.52
2018-08-13T11:10:03.950Z,1003.52
2018-08-13T11:11:03.939Z,1003.53
2018-08-13T11:12:03.931Z,1003.56
2018-08-13T11:13:03.937Z,1003.83
2018-08-13T11:14:03.907Z,1003.76
2018-08-13T11:15:03.899Z,1003.80
2018-08-13T11:16:03.892Z,1003.75
2018-08-13T11:17:03.898Z,1003.60
2018-08-13T11:18:03.869Z,1003.78
2018-08-13T11:19:03.856Z,1003.57
2018-08-13T11:20:03.851Z,1003.47
2018-08-13T11:21:03.842Z,1003.52
2018-08-13T11:22:03.833Z,1003.42
2018-08-13T11:23:03.843Z,1003.41
2018-08-13T11:24:03.824Z,1003.38
2018-08-13T11:25:03.809Z,1003.36
2018-08-13T11:26:03.803Z,1003.39
2018-08-13T11:27:03.787Z,1003.39
2018-08-13T11:28:03.782Z,1003.25
2018-08-13T11:29:03.792Z,1003.22
2018-08-13T11:30:03.768Z,1003.13
2018-08-13T11:31:03.803Z,1003.11
2018-08-13T11:32:03.752Z,1003.06
2018-08-13T11:33:03.756Z,1003.22
2018-08-13T11:34:03.729Z,1003.22
2018-08-13T11:35:03.719Z,1003.12
2018-08-13T11:36:03.711Z,1003.13
2018-08-13T11:37:03.705Z,1003.18
2018-08-13T11:38:03.707Z,1003.26
2018-08-13T11:39:03.688Z,1003.22
2018-08-13T11:40:03.674Z,1003.29
2018-08-13T11:41:03.665Z,1003.24
2018-08-13T11:42:03.655Z,1003.28
2018-08-13T11:43:03.662Z,1003.24
2018-08-13T11:44:03.635Z,1003.25
2018-08-13T11:45:03.639Z,1003.18
2018-08-13T11:46:03.613Z,1003.12
2018-08-13T11:47:03.603Z,1003.14
2018-08-13T11:48:03.592Z,1003.13
2018-08-13T11:49:03.595Z,1003.11
2018-08-13T11:50:03.574Z,1003.09
2018-08-13T11:51:03.564Z,1003.06
2018-08-13T11:52:03.550Z,1003.03
2018-08-13T11:53:03.536Z,1003.02
2018-08-13T11:54:03.543Z,1003.04
2018-08-13T11:55:03.519Z,1002.98
2018-08-13T11:56:03.523Z,1002.92
2018-08-13T11:57:03.499Z,1002.94
2018-08-13T11:58:03.485Z,1003.02
2018-08-13T11:59:03.491Z,1003.16
2018-08-13T12:00:03.466Z,1003.27
2018-08-13T12:01:03.514Z,1003.33
2018-08-13T12:02:03.480Z,1003.53
2018-08-13T12:03:03.434Z,1003.66
2018-08-13T12:04:03.425Z,1003.58
2018-08-13T12:05:03.412Z,1003.36